sensor_id;sensor_type;location;lat;lon;timestamp;P1;durP1;ratioP1;P2;durP2;ratioP2
16522;SDS011;19889;52.546;13.348;2022-07-29T00:01:06;401.02;;;363.25;;
16522;SDS011;19889;52.546;13.348;2022-07-29T00:03:33;398.80;;;356.47;;
16522;SDS011;19889;52.546;13.348;2022-07-29T00:06:00;393.35;;;355.98;;
16522;SDS011;19889;52.546;13.348;2022-07-29T00:08:27;397.45;;;355.38;;
16522;SDS011;19889;52.546;13.348;2022-07-29T00:10:53;400.63;;;356.47;;
16522;SDS011;19889;52.546;13.348;2022-07-29T00:13:22;392.57;;;349.80;;
16522;SDS011;19889;52.546;13.348;2022-07-29T00:15:49;401.43;;;346.90;;
16522;SDS011;19889;52.546;13.348;2022-07-29T00:18:15;384.15;;;349.35;;
16522;SDS011;19889;52.546;13.348;2022-07-29T00:20:42;393.77;;;351.93;;
16522;SDS011;19889;52.546;13.348;2022-07-29T00:23:09;397.95;;;361.45;;
16522;SDS011;19889;52.546;13.348;2022-07-29T00:25:36;378.08;;;345.10;;
16522;SDS011;19889;52.546;13.348;2022-07-29T00:28:03;391.92;;;356.30;;
16522;SDS011;19889;52.546;13.348;2022-07-29T00:30:32;387.77;;;351.80;;
16522;SDS011;19889;52.546;13.348;2022-07-29T00:32:58;389.42;;;356.42;;
16522;SDS011;19889;52.546;13.348;2022-07-29T00:35:25;397.13;;;360.77;;
16522;SDS011;19889;52.546;13.348;2022-07-29T00:38:09;390.02;;;352.75;;
16522;SDS011;19889;52.546;13.348;2022-07-29T00:40:36;379.27;;;346.50;;
16522;SDS011;19889;52.546;13.348;2022-07-29T00:43:03;380.13;;;347.92;;
16522;SDS011;19889;52.546;13.348;2022-07-29T00:45:31;389.15;;;355.15;;
16522;SDS011;19889;52.546;13.348;2022-07-29T00:47:58;376.55;;;344.73;;
16522;SDS011;19889;52.546;13.348;2022-07-29T00:50:25;371.05;;;337.80;;
16522;SDS011;19889;52.546;13.348;2022-07-29T00:52:52;385.00;;;349.90;;
16522;SDS011;19889;52.546;13.348;2022-07-29T00:55:19;389.20;;;352.40;;
16522;SDS011;19889;52.546;13.348;2022-07-29T00:57:46;371.52;;;338.80;;
16522;SDS011;19889;52.546;13.348;2022-07-29T01:00:18;377.77;;;345.25;;
16522;SDS011;19889;52.546;13.348;2022-07-29T01:02:47;376.43;;;340.27;;
16522;SDS011;19889;52.546;13.348;2022-07-29T01:05:16;374.73;;;342.08;;
16522;SDS011;19889;52.546;13.348;2022-07-29T01:07:44;379.47;;;343.43;;
16522;SDS011;19889;52.546;13.348;2022-07-29T01:10:13;379.13;;;341.85;;
16522;SDS011;19889;52.546;13.348;2022-07-29T01:12:41;385.60;;;348.33;;
16522;SDS011;19889;52.546;13.348;2022-07-29T01:15:10;384.87;;;346.50;;
16522;SDS011;19889;52.546;13.348;2022-07-29T01:17:39;380.58;;;343.38;;
16522;SDS011;19889;52.546;13.348;2022-07-29T01:20:13;365.27;;;332.38;;
16522;SDS011;19889;52.546;13.348;2022-07-29T01:22:53;371.38;;;337.30;;
16522;SDS011;19889;52.546;13.348;2022-07-29T01:25:55;372.07;;;338.47;;
16522;SDS011;19889;52.546;13.348;2022-07-29T01:28:39;375.57;;;340.33;;
16522;SDS011;19889;52.546;13.348;2022-07-29T01:31:16;372.27;;;337.53;;
16522;SDS011;19889;52.546;13.348;2022-07-29T01:33:48;414.93;;;372.10;;
16522;SDS011;19889;52.546;13.348;2022-07-29T01:36:22;380.15;;;341.92;;
16522;SDS011;19889;52.546;13.348;2022-07-29T01:38:54;372.30;;;338.70;;
16522;SDS011;19889;52.546;13.348;2022-07-29T01:41:28;373.57;;;339.13;;
16522;SDS011;19889;52.546;13.348;2022-07-29T01:44:01;365.17;;;332.23;;
16522;SDS011;19889;52.546;13.348;2022-07-29T01:46:34;371.43;;;336.17;;
16522;SDS011;19889;52.546;13.348;2022-07-29T01:49:06;373.17;;;338.60;;
16522;SDS011;19889;52.546;13.348;2022-07-29T01:51:40;372.93;;;336.17;;
16522;SDS011;19889;52.546;13.348;2022-07-29T01:54:12;368.48;;;334.52;;
16522;SDS011;19889;52.546;13.348;2022-07-29T01:56:44;364.13;;;330.42;;
16522;SDS011;19889;52.546;13.348;2022-07-29T01:59:15;362.17;;;325.23;;
16522;SDS011;19889;52.546;13.348;2022-07-29T02:01:43;358.87;;;323.97;;
16522;SDS011;19889;52.546;13.348;2022-07-29T02:04:13;353.77;;;320.17;;
16522;SDS011;19889;52.546;13.348;2022-07-29T02:06:42;351.13;;;319.07;;
16522;SDS011;19889;52.546;13.348;2022-07-29T02:09:11;350.67;;;318.43;;
16522;SDS011;19889;52.546;13.348;2022-07-29T02:11:40;351.90;;;318.27;;
16522;SDS011;19889;52.546;13.348;2022-07-29T02:14:15;357.80;;;320.10;;
16522;SDS011;19889;52.546;13.348;2022-07-29T02:16:44;348.43;;;315.73;;
16522;SDS011;19889;52.546;13.348;2022-07-29T02:19:13;347.40;;;314.27;;
16522;SDS011;19889;52.546;13.348;2022-07-29T02:21:43;348.23;;;315.53;;
16522;SDS011;19889;52.546;13.348;2022-07-29T02:24:11;341.60;;;309.27;;
16522;SDS011;19889;52.546;13.348;2022-07-29T02:26:40;345.88;;;314.40;;
16522;SDS011;19889;52.546;13.348;2022-07-29T02:29:09;349.47;;;316.17;;
16522;SDS011;19889;52.546;13.348;2022-07-29T02:31:39;352.50;;;319.50;;
16522;SDS011;19889;52.546;13.348;2022-07-29T02:34:08;341.23;;;308.03;;
16522;SDS011;19889;52.546;13.348;2022-07-29T02:36:36;352.10;;;318.90;;
16522;SDS011;19889;52.546;13.348;2022-07-29T02:39:05;347.27;;;314.47;;
16522;SDS011;19889;52.546;13.348;2022-07-29T02:41:35;352.40;;;319.27;;
16522;SDS011;19889;52.546;13.348;2022-07-29T02:44:09;353.27;;;318.80;;
16522;SDS011;19889;52.546;13.348;2022-07-29T02:46:37;350.07;;;316.07;;
16522;SDS011;19889;52.546;13.348;2022-07-29T02:49:13;350.57;;;318.70;;
16522;SDS011;19889;52.546;13.348;2022-07-29T02:51:45;332.50;;;302.83;;
16522;SDS011;19889;52.546;13.348;2022-07-29T02:54:20;341.93;;;310.23;;
16522;SDS011;19889;52.546;13.348;2022-07-29T02:56:52;337.67;;;304.73;;
16522;SDS011;19889;52.546;13.348;2022-07-29T02:59:22;339.17;;;308.73;;
16522;SDS011;19889;52.546;13.348;2022-07-29T03:01:55;335.90;;;304.47;;
16522;SDS011;19889;52.546;13.348;2022-07-29T03:04:26;344.67;;;313.00;;
16522;SDS011;19889;52.546;13.348;2022-07-29T03:06:55;342.23;;;311.17;;
16522;SDS011;19889;52.546;13.348;2022-07-29T03:09:24;333.63;;;303.13;;
16522;SDS011;19889;52.546;13.348;2022-07-29T03:11:52;338.53;;;306.53;;
16522;SDS011;19889;52.546;13.348;2022-07-29T03:14:20;341.37;;;309.30;;
16522;SDS011;19889;52.546;13.348;2022-07-29T03:16:48;340.17;;;308.83;;
16522;SDS011;19889;52.546;13.348;2022-07-29T03:19:17;352.43;;;316.90;;
16522;SDS011;19889;52.546;13.348;2022-07-29T03:21:45;341.73;;;305.97;;
16522;SDS011;19889;52.546;13.348;2022-07-29T03:24:23;333.47;;;302.27;;
16522;SDS011;19889;52.546;13.348;2022-07-29T03:26:51;333.03;;;303.20;;
16522;SDS011;19889;52.546;13.348;2022-07-29T03:29:18;337.40;;;305.53;;
16522;SDS011;19889;52.546;13.348;2022-07-29T03:31:44;335.07;;;305.73;;
16522;SDS011;19889;52.546;13.348;2022-07-29T03:34:11;333.07;;;302.87;;
16522;SDS011;19889;52.546;13.348;2022-07-29T03:36:39;333.07;;;300.23;;
16522;SDS011;19889;52.546;13.348;2022-07-29T03:39:06;338.23;;;302.30;;
16522;SDS011;19889;52.546;13.348;2022-07-29T03:41:36;331.60;;;298.97;;
16522;SDS011;19889;52.546;13.348;2022-07-29T03:44:06;334.27;;;300.47;;
16522;SDS011;19889;52.546;13.348;2022-07-29T03:46:35;346.77;;;312.90;;
16522;SDS011;19889;52.546;13.348;2022-07-29T03:49:03;333.43;;;301.73;;
16522;SDS011;19889;52.546;13.348;2022-07-29T03:51:33;328.20;;;296.00;;
16522;SDS011;19889;52.546;13.348;2022-07-29T03:54:02;337.03;;;304.80;;
16522;SDS011;19889;52.546;13.348;2022-07-29T03:56:30;341.13;;;307.40;;
16522;SDS011;19889;52.546;13.348;2022-07-29T03:59:00;332.73;;;299.47;;
16522;SDS011;19889;52.546;13.348;2022-07-29T04:01:29;336.83;;;303.13;;
16522;SDS011;19889;52.546;13.348;2022-07-29T04:03:58;318.43;;;287.03;;
16522;SDS011;19889;52.546;13.348;2022-07-29T04:06:26;346.07;;;311.97;;
16522;SDS011;19889;52.546;13.348;2022-07-29T04:08:53;326.30;;;295.33;;
16522;SDS011;19889;52.546;13.348;2022-07-29T04:11:21;340.17;;;304.67;;
16522;SDS011;19889;52.546;13.348;2022-07-29T04:13:48;318.60;;;288.67;;
16522;SDS011;19889;52.546;13.348;2022-07-29T04:16:15;330.80;;;300.02;;
16522;SDS011;19889;52.546;13.348;2022-07-29T04:18:42;331.47;;;299.83;;
16522;SDS011;19889;52.546;13.348;2022-07-29T04:21:08;329.43;;;298.30;;
16522;SDS011;19889;52.546;13.348;2022-07-29T04:23:35;336.53;;;302.70;;
16522;SDS011;19889;52.546;13.348;2022-07-29T04:26:02;326.63;;;295.87;;
16522;SDS011;19889;52.546;13.348;2022-07-29T04:28:30;332.07;;;300.30;;
16522;SDS011;19889;52.546;13.348;2022-07-29T04:30:57;336.63;;;304.80;;
16522;SDS011;19889;52.546;13.348;2022-07-29T04:33:24;331.03;;;299.93;;
16522;SDS011;19889;52.546;13.348;2022-07-29T04:35:51;348.00;;;313.27;;
16522;SDS011;19889;52.546;13.348;2022-07-29T04:38:17;333.20;;;300.23;;
16522;SDS011;19889;52.546;13.348;2022-07-29T04:40:44;345.57;;;311.73;;
16522;SDS011;19889;52.546;13.348;2022-07-29T04:43:11;347.63;;;313.40;;
16522;SDS011;19889;52.546;13.348;2022-07-29T04:45:39;327.40;;;292.40;;
16522;SDS011;19889;52.546;13.348;2022-07-29T04:48:06;332.87;;;301.50;;
16522;SDS011;19889;52.546;13.348;2022-07-29T04:50:33;329.80;;;297.43;;
16522;SDS011;19889;52.546;13.348;2022-07-29T04:53:00;344.67;;;308.93;;
16522;SDS011;19889;52.546;13.348;2022-07-29T04:55:27;336.17;;;305.37;;
16522;SDS011;19889;52.546;13.348;2022-07-29T04:57:54;352.67;;;316.37;;
16522;SDS011;19889;52.546;13.348;2022-07-29T05:00:20;340.87;;;308.17;;
16522;SDS011;19889;52.546;13.348;2022-07-29T05:02:49;335.03;;;299.57;;
16522;SDS011;19889;52.546;13.348;2022-07-29T05:05:16;345.93;;;310.57;;
16522;SDS011;19889;52.546;13.348;2022-07-29T05:07:43;340.97;;;308.20;;
16522;SDS011;19889;52.546;13.348;2022-07-29T05:10:10;351.70;;;316.50;;
16522;SDS011;19889;52.546;13.348;2022-07-29T05:12:36;351.20;;;316.83;;
16522;SDS011;19889;52.546;13.348;2022-07-29T05:15:04;349.97;;;314.33;;
16522;SDS011;19889;52.546;13.348;2022-07-29T05:17:31;350.47;;;314.83;;
16522;SDS011;19889;52.546;13.348;2022-07-29T05:20:00;361.77;;;327.47;;
16522;SDS011;19889;52.546;13.348;2022-07-29T05:22:26;349.65;;;318.05;;
16522;SDS011;19889;52.546;13.348;2022-07-29T05:24:54;364.57;;;327.83;;
16522;SDS011;19889;52.546;13.348;2022-07-29T05:27:20;363.75;;;327.08;;
16522;SDS011;19889;52.546;13.348;2022-07-29T05:29:47;370.15;;;335.42;;
16522;SDS011;19889;52.546;13.348;2022-07-29T05:32:14;367.02;;;333.48;;
16522;SDS011;19889;52.546;13.348;2022-07-29T05:34:41;368.83;;;335.70;;
16522;SDS011;19889;52.546;13.348;2022-07-29T05:37:09;372.83;;;337.38;;
16522;SDS011;19889;52.546;13.348;2022-07-29T05:39:38;377.70;;;339.35;;
16522;SDS011;19889;52.546;13.348;2022-07-29T05:42:07;361.70;;;326.40;;
16522;SDS011;19889;52.546;13.348;2022-07-29T05:44:35;366.40;;;327.63;;
16522;SDS011;19889;52.546;13.348;2022-07-29T05:47:03;361.48;;;328.10;;
16522;SDS011;19889;52.546;13.348;2022-07-29T05:49:29;375.23;;;340.38;;
16522;SDS011;19889;52.546;13.348;2022-07-29T05:51:56;361.85;;;323.30;;
16522;SDS011;19889;52.546;13.348;2022-07-29T05:54:24;378.10;;;338.77;;
16522;SDS011;19889;52.546;13.348;2022-07-29T05:56:51;367.73;;;333.92;;
16522;SDS011;19889;52.546;13.348;2022-07-29T05:59:18;364.85;;;330.02;;
16522;SDS011;19889;52.546;13.348;2022-07-29T06:01:45;382.25;;;345.92;;
16522;SDS011;19889;52.546;13.348;2022-07-29T06:04:12;370.98;;;336.85;;
16522;SDS011;19889;52.546;13.348;2022-07-29T06:06:38;384.98;;;348.63;;
16522;SDS011;19889;52.546;13.348;2022-07-29T06:09:05;385.70;;;352.05;;
16522;SDS011;19889;52.546;13.348;2022-07-29T06:11:34;378.67;;;347.38;;
16522;SDS011;19889;52.546;13.348;2022-07-29T06:14:01;391.63;;;354.98;;
16522;SDS011;19889;52.546;13.348;2022-07-29T06:16:28;421.38;;;379.95;;
16522;SDS011;19889;52.546;13.348;2022-07-29T06:18:54;406.48;;;369.92;;
16522;SDS011;19889;52.546;13.348;2022-07-29T06:21:21;407.15;;;368.73;;
16522;SDS011;19889;52.546;13.348;2022-07-29T06:23:48;412.15;;;373.02;;
16522;SDS011;19889;52.546;13.348;2022-07-29T06:26:15;415.67;;;376.55;;
16522;SDS011;19889;52.546;13.348;2022-07-29T06:28:43;422.98;;;382.95;;
16522;SDS011;19889;52.546;13.348;2022-07-29T06:31:10;417.42;;;381.75;;
16522;SDS011;19889;52.546;13.348;2022-07-29T06:33:36;431.17;;;394.33;;
16522;SDS011;19889;52.546;13.348;2022-07-29T06:36:04;410.70;;;375.20;;
16522;SDS011;19889;52.546;13.348;2022-07-29T06:38:31;406.60;;;373.35;;
16522;SDS011;19889;52.546;13.348;2022-07-29T06:40:58;429.98;;;392.20;;
16522;SDS011;19889;52.546;13.348;2022-07-29T06:43:26;423.90;;;387.77;;
16522;SDS011;19889;52.546;13.348;2022-07-29T06:45:57;434.05;;;395.08;;
16522;SDS011;19889;52.546;13.348;2022-07-29T06:48:26;441.73;;;400.50;;
16522;SDS011;19889;52.546;13.348;2022-07-29T06:50:53;441.92;;;404.90;;
16522;SDS011;19889;52.546;13.348;2022-07-29T06:53:20;428.88;;;389.92;;
16522;SDS011;19889;52.546;13.348;2022-07-29T06:55:47;446.08;;;405.15;;
16522;SDS011;19889;52.546;13.348;2022-07-29T06:58:14;448.05;;;407.85;;
16522;SDS011;19889;52.546;13.348;2022-07-29T07:00:55;450.23;;;412.13;;
16522;SDS011;19889;52.546;13.348;2022-07-29T07:03:23;445.98;;;407.63;;
16522;SDS011;19889;52.546;13.348;2022-07-29T07:05:51;443.52;;;402.40;;
16522;SDS011;19889;52.546;13.348;2022-07-29T07:08:18;461.42;;;418.60;;
16522;SDS011;19889;52.546;13.348;2022-07-29T07:10:45;450.15;;;414.15;;
16522;SDS011;19889;52.546;13.348;2022-07-29T07:13:12;467.92;;;427.33;;
16522;SDS011;19889;52.546;13.348;2022-07-29T07:15:39;463.05;;;422.77;;
16522;SDS011;19889;52.546;13.348;2022-07-29T07:18:06;491.42;;;448.50;;
16522;SDS011;19889;52.546;13.348;2022-07-29T07:20:35;475.52;;;434.88;;
16522;SDS011;19889;52.546;13.348;2022-07-29T07:23:02;484.75;;;441.20;;
16522;SDS011;19889;52.546;13.348;2022-07-29T07:25:30;497.25;;;455.13;;
16522;SDS011;19889;52.546;13.348;2022-07-29T07:27:57;491.30;;;451.27;;
16522;SDS011;19889;52.546;13.348;2022-07-29T07:30:23;495.02;;;454.23;;
16522;SDS011;19889;52.546;13.348;2022-07-29T07:32:50;488.85;;;449.80;;
16522;SDS011;19889;52.546;13.348;2022-07-29T07:35:17;510.60;;;467.67;;
16522;SDS011;19889;52.546;13.348;2022-07-29T07:37:46;501.40;;;459.08;;
16522;SDS011;19889;52.546;13.348;2022-07-29T07:40:12;511.75;;;468.55;;
16522;SDS011;19889;52.546;13.348;2022-07-29T07:42:40;503.75;;;462.17;;
16522;SDS011;19889;52.546;13.348;2022-07-29T07:45:07;520.90;;;480.05;;
16522;SDS011;19889;52.546;13.348;2022-07-29T07:47:35;515.63;;;476.88;;
16522;SDS011;19889;52.546;13.348;2022-07-29T07:50:03;524.78;;;483.30;;
16522;SDS011;19889;52.546;13.348;2022-07-29T07:52:31;517.83;;;478.92;;
16522;SDS011;19889;52.546;13.348;2022-07-29T07:55:00;525.05;;;487.00;;
16522;SDS011;19889;52.546;13.348;2022-07-29T07:57:27;514.60;;;476.17;;
16522;SDS011;19889;52.546;13.348;2022-07-29T07:59:53;520.60;;;482.13;;
16522;SDS011;19889;52.546;13.348;2022-07-29T08:02:20;530.05;;;488.90;;
16522;SDS011;19889;52.546;13.348;2022-07-29T08:04:47;516.35;;;477.80;;
16522;SDS011;19889;52.546;13.348;2022-07-29T08:07:14;536.60;;;493.05;;
16522;SDS011;19889;52.546;13.348;2022-07-29T08:09:41;529.90;;;490.52;;
16522;SDS011;19889;52.546;13.348;2022-07-29T08:12:09;553.75;;;513.33;;
16522;SDS011;19889;52.546;13.348;2022-07-29T08:14:36;548.25;;;507.40;;
16522;SDS011;19889;52.546;13.348;2022-07-29T08:17:03;543.90;;;505.75;;
16522;SDS011;19889;52.546;13.348;2022-07-29T08:19:29;544.08;;;502.88;;
16522;SDS011;19889;52.546;13.348;2022-07-29T08:21:56;564.38;;;520.75;;
16522;SDS011;19889;52.546;13.348;2022-07-29T08:24:23;557.08;;;517.40;;
16522;SDS011;19889;52.546;13.348;2022-07-29T08:27:09;579.70;;;538.13;;
16522;SDS011;19889;52.546;13.348;2022-07-29T08:29:38;577.58;;;536.50;;
16522;SDS011;19889;52.546;13.348;2022-07-29T08:32:05;572.13;;;532.08;;
16522;SDS011;19889;52.546;13.348;2022-07-29T08:34:32;584.80;;;543.38;;
16522;SDS011;19889;52.546;13.348;2022-07-29T08:36:59;587.67;;;546.38;;
16522;SDS011;19889;52.546;13.348;2022-07-29T08:39:26;604.55;;;557.55;;
16522;SDS011;19889;52.546;13.348;2022-07-29T08:41:53;593.92;;;548.45;;
16522;SDS011;19889;52.546;13.348;2022-07-29T08:44:21;588.97;;;547.38;;
16522;SDS011;19889;52.546;13.348;2022-07-29T08:46:48;604.25;;;559.53;;
16522;SDS011;19889;52.546;13.348;2022-07-29T08:49:16;595.00;;;551.15;;
16522;SDS011;19889;52.546;13.348;2022-07-29T08:51:43;591.92;;;548.08;;
16522;SDS011;19889;52.546;13.348;2022-07-29T08:54:10;608.85;;;566.20;;
16522;SDS011;19889;52.546;13.348;2022-07-29T08:56:40;591.53;;;550.22;;
16522;SDS011;19889;52.546;13.348;2022-07-29T08:59:06;614.60;;;571.25;;
16522;SDS011;19889;52.546;13.348;2022-07-29T09:01:37;605.40;;;561.30;;
16522;SDS011;19889;52.546;13.348;2022-07-29T09:04:06;630.97;;;583.95;;
16522;SDS011;19889;52.546;13.348;2022-07-29T09:06:37;638.67;;;592.80;;
16522;SDS011;19889;52.546;13.348;2022-07-29T09:09:08;646.10;;;601.95;;
16522;SDS011;19889;52.546;13.348;2022-07-29T09:11:35;646.67;;;603.28;;
16522;SDS011;19889;52.546;13.348;2022-07-29T09:14:02;670.22;;;623.40;;
16522;SDS011;19889;52.546;13.348;2022-07-29T09:16:44;707.38;;;662.60;;
16522;SDS011;19889;52.546;13.348;2022-07-29T09:19:18;766.40;;;717.53;;
16522;SDS011;19889;52.546;13.348;2022-07-29T09:21:50;816.63;;;767.63;;
16522;SDS011;19889;52.546;13.348;2022-07-29T09:24:27;866.90;;;816.03;;
16522;SDS011;19889;52.546;13.348;2022-07-29T09:27:07;898.13;;;844.30;;
16522;SDS011;19889;52.546;13.348;2022-07-29T09:29:45;884.05;;;834.20;;
16522;SDS011;19889;52.546;13.348;2022-07-29T09:32:14;857.60;;;808.92;;
16522;SDS011;19889;52.546;13.348;2022-07-29T09:34:40;773.67;;;730.47;;
16522;SDS011;19889;52.546;13.348;2022-07-29T09:37:07;819.20;;;773.25;;
16522;SDS011;19889;52.546;13.348;2022-07-29T09:39:35;814.50;;;769.42;;
16522;SDS011;19889;52.546;13.348;2022-07-29T09:42:10;775.88;;;731.78;;
16522;SDS011;19889;52.546;13.348;2022-07-29T09:44:42;782.53;;;738.20;;
16522;SDS011;19889;52.546;13.348;2022-07-29T09:47:09;767.25;;;722.70;;
16522;SDS011;19889;52.546;13.348;2022-07-29T09:49:53;769.85;;;724.88;;
16522;SDS011;19889;52.546;13.348;2022-07-29T09:52:26;758.35;;;710.95;;
16522;SDS011;19889;52.546;13.348;2022-07-29T09:55:03;725.80;;;683.38;;
16522;SDS011;19889;52.546;13.348;2022-07-29T09:57:31;722.72;;;680.08;;
16522;SDS011;19889;52.546;13.348;2022-07-29T09:59:59;725.05;;;680.45;;
16522;SDS011;19889;52.546;13.348;2022-07-29T10:02:37;698.83;;;657.95;;
16522;SDS011;19889;52.546;13.348;2022-07-29T10:05:15;696.22;;;653.42;;
16522;SDS011;19889;52.546;13.348;2022-07-29T10:07:44;649.78;;;614.35;;
16522;SDS011;19889;52.546;13.348;2022-07-29T10:10:17;682.25;;;641.20;;
16522;SDS011;19889;52.546;13.348;2022-07-29T10:12:50;669.33;;;630.17;;
16522;SDS011;19889;52.546;13.348;2022-07-29T10:15:18;672.20;;;631.17;;
16522;SDS011;19889;52.546;13.348;2022-07-29T10:17:46;662.72;;;623.38;;
16522;SDS011;19889;52.546;13.348;2022-07-29T10:20:15;687.75;;;639.92;;
16522;SDS011;19889;52.546;13.348;2022-07-29T10:22:43;669.70;;;631.25;;
16522;SDS011;19889;52.546;13.348;2022-07-29T10:25:12;688.85;;;645.05;;
16522;SDS011;19889;52.546;13.348;2022-07-29T10:27:39;667.00;;;624.30;;
16522;SDS011;19889;52.546;13.348;2022-07-29T10:30:07;668.65;;;628.40;;
16522;SDS011;19889;52.546;13.348;2022-07-29T10:32:38;664.28;;;623.70;;
16522;SDS011;19889;52.546;13.348;2022-07-29T10:38:30;678.40;;;633.88;;
16522;SDS011;19889;52.546;13.348;2022-07-29T10:41:19;661.70;;;622.90;;
16522;SDS011;19889;52.546;13.348;2022-07-29T10:44:01;666.13;;;622.53;;
16522;SDS011;19889;52.546;13.348;2022-07-29T10:46:34;679.30;;;636.03;;
16522;SDS011;19889;52.546;13.348;2022-07-29T10:49:08;650.72;;;612.83;;
16522;SDS011;19889;52.546;13.348;2022-07-29T10:51:54;651.17;;;613.42;;
16522;SDS011;19889;52.546;13.348;2022-07-29T10:54:36;657.78;;;618.45;;
16522;SDS011;19889;52.546;13.348;2022-07-29T10:57:19;678.50;;;634.55;;
16522;SDS011;19889;52.546;13.348;2022-07-29T10:59:48;667.28;;;627.58;;
16522;SDS011;19889;52.546;13.348;2022-07-29T11:05:08;661.58;;;622.80;;
16522;SDS011;19889;52.546;13.348;2022-07-29T11:07:38;693.55;;;648.55;;
16522;SDS011;19889;52.546;13.348;2022-07-29T11:10:19;653.38;;;616.58;;
16522;SDS011;19889;52.546;13.348;2022-07-29T11:12:47;692.30;;;648.28;;
16522;SDS011;19889;52.546;13.348;2022-07-29T11:15:14;685.28;;;644.40;;
16522;SDS011;19889;52.546;13.348;2022-07-29T11:20:30;670.92;;;630.70;;
16522;SDS011;19889;52.546;13.348;2022-07-29T11:23:00;665.60;;;626.08;;
16522;SDS011;19889;52.546;13.348;2022-07-29T11:25:27;682.90;;;642.30;;
16522;SDS011;19889;52.546;13.348;2022-07-29T11:27:54;690.88;;;647.47;;
16522;SDS011;19889;52.546;13.348;2022-07-29T11:30:49;696.75;;;654.20;;
16522;SDS011;19889;52.546;13.348;2022-07-29T11:33:27;705.67;;;661.08;;
16522;SDS011;19889;52.546;13.348;2022-07-29T11:36:07;664.33;;;626.92;;
16522;SDS011;19889;52.546;13.348;2022-07-29T11:38:36;671.17;;;631.47;;
16522;SDS011;19889;52.546;13.348;2022-07-29T11:41:19;695.85;;;652.33;;
16522;SDS011;19889;52.546;13.348;2022-07-29T11:43:48;679.92;;;639.40;;
16522;SDS011;19889;52.546;13.348;2022-07-29T11:46:16;680.75;;;639.97;;
16522;SDS011;19889;52.546;13.348;2022-07-29T11:48:59;679.08;;;640.30;;
16522;SDS011;19889;52.546;13.348;2022-07-29T11:51:28;694.90;;;652.58;;
16522;SDS011;19889;52.546;13.348;2022-07-29T11:53:56;703.50;;;660.88;;
16522;SDS011;19889;52.546;13.348;2022-07-29T11:56:24;685.05;;;643.35;;
16522;SDS011;19889;52.546;13.348;2022-07-29T11:59:01;680.67;;;641.47;;
16522;SDS011;19889;52.546;13.348;2022-07-29T12:01:31;691.17;;;648.58;;
16522;SDS011;19889;52.546;13.348;2022-07-29T12:04:04;679.53;;;639.95;;
16522;SDS011;19889;52.546;13.348;2022-07-29T12:06:31;681.13;;;639.83;;
16522;SDS011;19889;52.546;13.348;2022-07-29T12:09:00;705.70;;;659.67;;
16522;SDS011;19889;52.546;13.348;2022-07-29T12:11:32;686.88;;;646.10;;
16522;SDS011;19889;52.546;13.348;2022-07-29T12:13:59;692.85;;;649.15;;
16522;SDS011;19889;52.546;13.348;2022-07-29T12:16:34;699.50;;;654.35;;
16522;SDS011;19889;52.546;13.348;2022-07-29T12:19:02;686.03;;;645.25;;
16522;SDS011;19889;52.546;13.348;2022-07-29T12:21:42;685.88;;;645.67;;
16522;SDS011;19889;52.546;13.348;2022-07-29T12:24:11;706.22;;;662.15;;
16522;SDS011;19889;52.546;13.348;2022-07-29T12:26:48;693.97;;;650.83;;
16522;SDS011;19889;52.546;13.348;2022-07-29T12:29:15;693.17;;;650.53;;
16522;SDS011;19889;52.546;13.348;2022-07-29T12:31:43;657.78;;;620.92;;
16522;SDS011;19889;52.546;13.348;2022-07-29T12:34:11;699.67;;;657.05;;
16522;SDS011;19889;52.546;13.348;2022-07-29T12:36:39;698.00;;;654.80;;
16522;SDS011;19889;52.546;13.348;2022-07-29T12:39:07;672.63;;;634.65;;
16522;SDS011;19889;52.546;13.348;2022-07-29T12:41:36;690.92;;;650.35;;
16522;SDS011;19889;52.546;13.348;2022-07-29T12:44:04;695.60;;;654.33;;
16522;SDS011;19889;52.546;13.348;2022-07-29T12:46:31;704.85;;;661.60;;
16522;SDS011;19889;52.546;13.348;2022-07-29T12:48:57;704.72;;;663.45;;
16522;SDS011;19889;52.546;13.348;2022-07-29T12:51:28;669.38;;;632.17;;
16522;SDS011;19889;52.546;13.348;2022-07-29T12:54:02;694.67;;;654.00;;
16522;SDS011;19889;52.546;13.348;2022-07-29T12:56:32;698.33;;;656.05;;
16522;SDS011;19889;52.546;13.348;2022-07-29T12:59:01;696.85;;;656.40;;
16522;SDS011;19889;52.546;13.348;2022-07-29T13:01:41;674.78;;;636.88;;
16522;SDS011;19889;52.546;13.348;2022-07-29T13:04:08;693.00;;;651.75;;
16522;SDS011;19889;52.546;13.348;2022-07-29T13:06:36;709.50;;;665.35;;
16522;SDS011;19889;52.546;13.348;2022-07-29T13:09:06;642.33;;;608.58;;
16522;SDS011;19889;52.546;13.348;2022-07-29T13:11:36;687.22;;;647.85;;
16522;SDS011;19889;52.546;13.348;2022-07-29T13:14:06;707.42;;;665.90;;
16522;SDS011;19889;52.546;13.348;2022-07-29T13:16:35;711.58;;;669.97;;
16522;SDS011;19889;52.546;13.348;2022-07-29T13:19:07;718.45;;;676.75;;
16522;SDS011;19889;52.546;13.348;2022-07-29T13:21:36;722.10;;;677.72;;
16522;SDS011;19889;52.546;13.348;2022-07-29T13:24:04;717.15;;;674.92;;
16522;SDS011;19889;52.546;13.348;2022-07-29T13:26:32;710.67;;;668.33;;
16522;SDS011;19889;52.546;13.348;2022-07-29T13:28:59;714.47;;;671.03;;
16522;SDS011;19889;52.546;13.348;2022-07-29T13:31:27;716.70;;;675.70;;
16522;SDS011;19889;52.546;13.348;2022-07-29T13:33:54;738.97;;;695.30;;
16522;SDS011;19889;52.546;13.348;2022-07-29T13:36:21;745.03;;;698.60;;
16522;SDS011;19889;52.546;13.348;2022-07-29T13:38:48;733.80;;;690.30;;
16522;SDS011;19889;52.546;13.348;2022-07-29T13:41:15;726.50;;;684.70;;
16522;SDS011;19889;52.546;13.348;2022-07-29T13:43:42;706.58;;;666.85;;
16522;SDS011;19889;52.546;13.348;2022-07-29T13:46:09;711.72;;;670.92;;
16522;SDS011;19889;52.546;13.348;2022-07-29T13:48:37;742.22;;;694.47;;
16522;SDS011;19889;52.546;13.348;2022-07-29T13:51:04;721.85;;;680.10;;
16522;SDS011;19889;52.546;13.348;2022-07-29T13:53:31;735.08;;;691.45;;
16522;SDS011;19889;52.546;13.348;2022-07-29T13:55:58;702.53;;;662.85;;
16522;SDS011;19889;52.546;13.348;2022-07-29T13:58:25;712.45;;;670.72;;
16522;SDS011;19889;52.546;13.348;2022-07-29T14:00:52;730.92;;;687.38;;
16522;SDS011;19889;52.546;13.348;2022-07-29T14:03:19;730.85;;;687.35;;
16522;SDS011;19889;52.546;13.348;2022-07-29T14:05:47;732.78;;;689.60;;